createdAt,value
2019-03-29T00:01:36.563Z,86.37
2019-03-29T00:06:10.773Z,83.80
2019-03-29T00:10:45.111Z,87.63
2019-03-29T00:15:18.818Z,82.60
2019-03-29T00:19:51.387Z,86.70
2019-03-29T00:24:25.159Z,85.27
2019-03-29T00:28:58.338Z,86.87
2019-03-29T00:33:31.704Z,89.13
2019-03-29T00:38:24.606Z,93.93
2019-03-29T00:42:59.275Z,90.47
2019-03-29T00:47:32.651Z,83.40
2019-03-29T00:52:04.426Z,85.97
2019-03-29T00:56:38.980Z,90.73
2019-03-29T01:01:11.756Z,89.27
2019-03-29T01:06:03.845Z,82.13
2019-03-29T01:10:38.721Z,89.20
2019-03-29T01:15:14.224Z,89.00
2019-03-29T01:19:46.881Z,96.47
2019-03-29T01:24:20.906Z,94.97
2019-03-29T01:28:53.817Z,96.37
2019-03-29T01:33:27.179Z,90.77
2019-03-29T01:38:01.831Z,90.80
2019-03-29T01:42:35.110Z,94.07
2019-03-29T01:47:10.893Z,93.60
2019-03-29T01:52:06.336Z,103.67
2019-03-29T01:56:42.939Z,94.47
2019-03-29T02:01:14.371Z,99.87
2019-03-29T02:05:48.411Z,92.27
2019-03-29T02:10:23.106Z,98.57
2019-03-29T02:14:59.037Z,100.47
2019-03-29T02:19:32.439Z,94.97
2019-03-29T02:24:04.650Z,93.20
2019-03-29T02:28:39.030Z,106.03
2019-03-29T02:33:11.795Z,99.23
2019-03-29T02:37:46.453Z,100.80
2019-03-29T02:42:21.376Z,97.03
2019-03-29T02:46:54.275Z,96.83
2019-03-29T02:51:27.606Z,90.00
2019-03-29T02:56:20.929Z,87.27
2019-03-29T03:00:54.654Z,91.83
2019-03-29T03:05:28.085Z,95.03
2019-03-29T03:09:59.431Z,88.00
2019-03-29T03:14:32.091Z,87.50
2019-03-29T03:19:07.341Z,84.37
2019-03-29T03:23:39.073Z,89.80
2019-03-29T03:28:16.135Z,83.03
2019-03-29T03:32:51.000Z,98.73
2019-03-29T03:37:23.860Z,93.87
2019-03-29T03:41:58.975Z,111.40
2019-03-29T03:46:35.826Z,100.13
2019-03-29T03:51:09.261Z,93.00
2019-03-29T04:00:18.274Z,97.07
2019-03-29T04:04:51.851Z,104.50
2019-03-29T04:13:58.405Z,99.77
2019-03-29T04:18:31.948Z,96.40
2019-03-29T04:27:38.603Z,95.37
2019-03-29T04:32:11.629Z,74.40
2019-03-29T04:36:47.330Z,108.03
2019-03-29T04:41:19.469Z,102.90
2019-03-29T04:45:52.293Z,94.30
2019-03-29T04:50:26.491Z,94.17
2019-03-29T04:55:00.537Z,88.13
2019-03-29T04:59:34.764Z,99.93
2019-03-29T05:04:08.378Z,99.70
2019-03-29T05:08:39.206Z,84.20
2019-03-29T05:13:14.346Z,90.43
2019-03-29T05:17:48.539Z,100.47
2019-03-29T05:22:19.247Z,97.97
2019-03-29T05:26:53.876Z,95.43
2019-03-29T05:31:29.204Z,90.33
2019-03-29T05:35:59.430Z,92.23
2019-03-29T05:40:35.284Z,85.83
2019-03-29T05:45:09.147Z,83.37
2019-03-29T05:49:42.255Z,95.20
2019-03-29T05:54:15.975Z,85.10
2019-03-29T05:58:50.638Z,89.20
2019-03-29T06:03:45.988Z,93.43
2019-03-29T06:08:21.830Z,92.70
2019-03-29T06:12:54.520Z,86.27
2019-03-29T06:17:29.163Z,94.97
2019-03-29T06:22:02.382Z,81.43
2019-03-29T06:26:35.687Z,88.53
2019-03-29T06:31:09.335Z,80.37
2019-03-29T06:35:46.875Z,87.50
2019-03-29T06:40:22.089Z,87.17
2019-03-29T06:44:54.852Z,73.20
2019-03-29T06:49:29.027Z,72.43
2019-03-29T06:54:02.144Z,70.87
2019-03-29T06:58:34.757Z,51.30
2019-03-29T07:03:07.332Z,61.43
2019-03-29T07:07:44.557Z,59.60
2019-03-29T07:12:19.423Z,63.40
2019-03-29T07:16:52.758Z,59.87
2019-03-29T07:21:26.173Z,49.23
2019-03-29T07:26:01.012Z,52.27
2019-03-29T07:30:32.226Z,53.53
2019-03-29T07:35:07.296Z,47.40
2019-03-29T07:39:41.931Z,41.33
2019-03-29T07:44:15.539Z,36.67
2019-03-29T07:48:49.313Z,27.60
2019-03-29T07:53:22.388Z,28.17
2019-03-29T07:57:55.408Z,31.53
2019-03-29T08:02:31.187Z,40.67
2019-03-29T08:07:06.245Z,35.30
2019-03-29T08:11:46.064Z,36.13
2019-03-29T08:16:16.086Z,37.20
2019-03-29T08:25:42.339Z,37.10
2019-03-29T08:30:14.763Z,39.77
2019-03-29T08:34:52.486Z,38.00
2019-03-29T08:39:28.219Z,35.67
2019-03-29T08:44:00.199Z,32.67
2019-03-29T08:48:32.387Z,30.03
2019-03-29T08:53:04.271Z,33.40
2019-03-29T09:02:04.526Z,28.10
2019-03-29T09:06:52.589Z,33.97
2019-03-29T09:11:18.192Z,28.70
2019-03-29T09:15:52.279Z,36.60
2019-03-29T09:20:25.578Z,29.83
2019-03-29T09:25:00.842Z,36.07
2019-03-29T09:29:35.048Z,32.57
2019-03-29T09:34:11.769Z,27.03
2019-03-29T09:38:43.956Z,29.13
2019-03-29T09:43:19.561Z,31.33
2019-03-29T09:47:55.801Z,47.33
2019-03-29T09:52:28.831Z,25.73
2019-03-29T09:57:01.936Z,28.07
2019-03-29T10:01:35.204Z,32.60
2019-03-29T10:06:09.011Z,26.77
2019-03-29T10:10:43.271Z,21.47
2019-03-29T10:15:16.917Z,27.37
2019-03-29T10:19:52.199Z,29.40
2019-03-29T10:24:25.016Z,23.27
2019-03-29T10:29:00.140Z,22.23
2019-03-29T10:33:33.624Z,28.90
2019-03-29T10:38:04.741Z,27.63
2019-03-29T10:42:56.737Z,25.60
2019-03-29T10:47:20.153Z,23.80
2019-03-29T10:51:53.153Z,26.67
2019-03-29T10:56:33.885Z,26.67
2019-03-29T11:01:00.501Z,21.27
2019-03-29T11:05:34.573Z,20.93
2019-03-29T11:10:09.093Z,25.83
2019-03-29T11:14:42.899Z,27.77
2019-03-29T11:19:16.898Z,26.50
2019-03-29T11:23:52.100Z,26.50
2019-03-29T11:28:24.440Z,24.03
2019-03-29T11:32:57.351Z,30.57
2019-03-29T11:37:33.526Z,31.43
2019-03-29T11:42:05.222Z,35.87
2019-03-29T11:46:37.738Z,21.87
2019-03-29T11:55:42.544Z,25.20
2019-03-29T12:00:21.589Z,29.63
2019-03-29T12:04:55.598Z,26.10
2019-03-29T12:09:32.207Z,31.03
2019-03-29T12:14:05.250Z,24.40
2019-03-29T12:18:39.663Z,23.93
2019-03-29T12:23:14.018Z,22.57
2019-03-29T12:27:44.486Z,25.23
2019-03-29T12:32:21.755Z,26.07
2019-03-29T12:37:14.445Z,30.53
2019-03-29T12:41:49.695Z,23.90
2019-03-29T12:46:24.833Z,27.57
2019-03-29T12:51:00.818Z,25.47
2019-03-29T12:55:54.607Z,28.23
2019-03-29T13:00:33.005Z,27.93
2019-03-29T13:05:04.222Z,27.30
2019-03-29T13:09:39.581Z,28.00
2019-03-29T13:14:12.228Z,21.00
2019-03-29T13:18:44.443Z,28.67
2019-03-29T13:23:17.330Z,19.70
2019-03-29T13:32:24.397Z,30.70
2019-03-29T13:36:57.216Z,20.73
2019-03-29T13:41:32.753Z,21.63
2019-03-29T13:46:25.187Z,28.63
2019-03-29T13:50:59.946Z,15.97
2019-03-29T13:55:33.805Z,24.23
2019-03-29T14:00:06.393Z,19.00
2019-03-29T14:04:39.971Z,21.03
2019-03-29T14:09:14.018Z,24.87
2019-03-29T14:13:45.517Z,22.63
2019-03-29T14:18:21.248Z,16.23
2019-03-29T14:22:55.513Z,18.83
2019-03-29T14:27:28.502Z,14.70
2019-03-29T14:32:03.777Z,20.87
2019-03-29T14:36:40.533Z,17.37
2019-03-29T14:41:13.975Z,18.07
2019-03-29T14:45:44.764Z,21.03
2019-03-29T14:50:22.553Z,23.77
2019-03-29T14:55:18.516Z,22.17
2019-03-29T14:59:52.207Z,29.37
2019-03-29T15:04:24.851Z,17.20
2019-03-29T15:08:57.597Z,22.17
2019-03-29T15:13:30.184Z,16.67
2019-03-29T15:18:05.133Z,19.10
2019-03-29T15:22:40.131Z,27.40
2019-03-29T15:27:13.764Z,20.70
2019-03-29T15:31:49.298Z,21.77
2019-03-29T15:36:28.161Z,27.63
2019-03-29T15:41:02.272Z,23.30
2019-03-29T15:50:08.705Z,25.73
2019-03-29T15:54:42.267Z,23.07
2019-03-29T15:59:16.884Z,30.47
2019-03-29T16:03:50.309Z,28.87
2019-03-29T16:08:26.133Z,21.63
2019-03-29T16:13:08.446Z,19.17
2019-03-29T16:17:42.256Z,24.13
2019-03-29T16:22:16.979Z,19.57
2019-03-29T16:26:49.529Z,23.23
2019-03-29T16:31:27.475Z,20.67
2019-03-29T16:36:20.132Z,21.43
2019-03-29T16:40:54.738Z,24.60
2019-03-29T16:45:28.321Z,26.20
2019-03-29T16:50:40.901Z,28.00
2019-03-29T16:55:14.722Z,27.80
2019-03-29T16:59:48.944Z,18.50
2019-03-29T17:04:27.962Z,22.30
2019-03-29T17:09:01.011Z,21.70
2019-03-29T17:13:38.677Z,28.90
2019-03-29T17:18:08.246Z,20.37
2019-03-29T17:22:43.466Z,22.13
2019-03-29T17:27:17.239Z,27.57
2019-03-29T17:31:52.269Z,25.23
2019-03-29T17:36:28.129Z,29.07
2019-03-29T17:41:02.515Z,24.80
2019-03-29T17:50:08.888Z,29.20
2019-03-29T17:54:44.826Z,28.17
2019-03-29T17:59:19.176Z,28.43
2019-03-29T18:03:53.411Z,28.90
2019-03-29T18:08:27.625Z,24.20
2019-03-29T18:13:06.638Z,30.03
2019-03-29T18:17:40.313Z,36.83
2019-03-29T18:22:16.765Z,31.63
2019-03-29T18:26:47.267Z,32.83
2019-03-29T18:35:55.128Z,37.70
2019-03-29T18:40:35.183Z,38.77
2019-03-29T18:45:07.333Z,38.10
2019-03-29T18:49:42.205Z,37.57
2019-03-29T18:54:14.395Z,36.60
2019-03-29T18:58:48.186Z,38.93
2019-03-29T19:03:22.103Z,37.57
2019-03-29T19:07:54.419Z,37.57
2019-03-29T19:12:27.699Z,34.13
2019-03-29T19:17:01.548Z,40.47
2019-03-29T19:21:34.778Z,41.97
2019-03-29T19:26:10.687Z,36.50
2019-03-29T19:30:43.421Z,38.97
2019-03-29T19:35:17.214Z,35.20
2019-03-29T19:39:51.791Z,37.90
2019-03-29T19:44:47.729Z,42.07
2019-03-29T19:49:23.320Z,44.47
2019-03-29T19:54:18.330Z,44.10
2019-03-29T19:58:56.620Z,44.27
2019-03-29T20:03:30.371Z,41.27
2019-03-29T20:08:05.236Z,45.00
2019-03-29T20:12:36.324Z,38.23
2019-03-29T20:17:10.121Z,42.77
2019-03-29T20:21:42.883Z,41.73
2019-03-29T20:26:14.499Z,38.13
2019-03-29T20:30:47.521Z,38.37
2019-03-29T20:35:23.537Z,38.67
2019-03-29T20:39:54.952Z,40.83
2019-03-29T20:44:30.384Z,36.00
2019-03-29T20:49:04.443Z,37.43
2019-03-29T20:53:39.227Z,35.80
2019-03-29T20:58:15.831Z,42.00
2019-03-29T21:02:49.768Z,39.93
2019-03-29T21:07:23.848Z,38.63
2019-03-29T21:11:54.976Z,39.53
2019-03-29T21:16:30.962Z,42.47
2019-03-29T21:21:04.056Z,41.33
2019-03-29T21:25:34.656Z,41.83
2019-03-29T21:30:09.611Z,38.73
2019-03-29T21:34:43.663Z,39.17
2019-03-29T21:39:18.343Z,41.07
2019-03-29T21:43:51.658Z,37.00
2019-03-29T21:48:30.815Z,41.77
2019-03-29T21:57:35.341Z,36.87
2019-03-29T22:02:12.029Z,42.27
2019-03-29T22:07:04.503Z,44.47
2019-03-29T22:11:41.594Z,39.03
2019-03-29T22:16:13.922Z,37.70
2019-03-29T22:20:47.209Z,36.20
2019-03-29T22:29:52.077Z,42.93
2019-03-29T22:34:24.501Z,36.40
2019-03-29T22:38:55.848Z,39.63
2019-03-29T22:43:32.975Z,35.03
2019-03-29T22:48:05.422Z,38.03
2019-03-29T22:52:38.779Z,44.90
2019-03-29T22:57:11.581Z,41.40
2019-03-29T23:01:47.380Z,38.63
2019-03-29T23:10:53.070Z,44.77
2019-03-29T23:15:27.331Z,42.77
2019-03-29T23:24:33.124Z,47.73
2019-03-29T23:29:07.924Z,47.83
2019-03-29T23:33:42.215Z,43.53
2019-03-29T23:38:15.393Z,48.07
2019-03-29T23:42:50.529Z,46.33
2019-03-29T23:47:23.720Z,45.60
2019-03-29T23:51:57.837Z,53.07
2019-03-29T23:56:30.513Z,42.27
